sensor_id;sensor_type;location;lat;lon;timestamp;P1;durP1;ratioP1;P2;durP2;ratioP2
62610;SDS011;48683;48.084;17.272;2022-07-10T00:04:12;1.70;;;1.60;;
62610;SDS011;48683;48.084;17.272;2022-07-10T00:06:37;1.97;;;1.87;;
62610;SDS011;48683;48.084;17.272;2022-07-10T00:09:06;2.58;;;1.88;;
62610;SDS011;48683;48.084;17.272;2022-07-10T00:11:31;2.70;;;1.83;;
62610;SDS011;48683;48.084;17.272;2022-07-10T00:13:56;2.33;;;2.03;;
62610;SDS011;48683;48.084;17.272;2022-07-10T00:16:22;3.30;;;1.83;;
62610;SDS011;48683;48.084;17.272;2022-07-10T00:18:47;2.97;;;2.20;;
62610;SDS011;48683;48.084;17.272;2022-07-10T00:21:12;3.73;;;2.43;;
62610;SDS011;48683;48.084;17.272;2022-07-10T00:23:38;4.17;;;2.50;;
62610;SDS011;48683;48.084;17.272;2022-07-10T00:26:03;4.67;;;2.90;;
62610;SDS011;48683;48.084;17.272;2022-07-10T00:28:29;5.40;;;3.23;;
62610;SDS011;48683;48.084;17.272;2022-07-10T00:30:54;5.60;;;4.30;;
62610;SDS011;48683;48.084;17.272;2022-07-10T00:33:19;6.97;;;4.30;;
62610;SDS011;48683;48.084;17.272;2022-07-10T00:35:45;4.67;;;3.10;;
62610;SDS011;48683;48.084;17.272;2022-07-10T00:38:10;5.03;;;2.70;;
62610;SDS011;48683;48.084;17.272;2022-07-10T00:40:35;4.47;;;2.50;;
62610;SDS011;48683;48.084;17.272;2022-07-10T00:43:01;5.07;;;2.80;;
62610;SDS011;48683;48.084;17.272;2022-07-10T00:45:26;4.67;;;2.30;;
62610;SDS011;48683;48.084;17.272;2022-07-10T00:47:51;3.27;;;2.30;;
62610;SDS011;48683;48.084;17.272;2022-07-10T00:50:17;2.43;;;1.80;;
62610;SDS011;48683;48.084;17.272;2022-07-10T00:52:42;2.20;;;2.00;;
62610;SDS011;48683;48.084;17.272;2022-07-10T00:55:08;2.40;;;1.77;;
62610;SDS011;48683;48.084;17.272;2022-07-10T00:57:35;2.10;;;1.90;;
62610;SDS011;48683;48.084;17.272;2022-07-10T01:02:27;3.53;;;1.95;;
62610;SDS011;48683;48.084;17.272;2022-07-10T01:04:52;1.60;;;1.50;;
62610;SDS011;48683;48.084;17.272;2022-07-10T01:07:18;4.03;;;1.80;;
62610;SDS011;48683;48.084;17.272;2022-07-10T01:09:43;2.17;;;1.97;;
62610;SDS011;48683;48.084;17.272;2022-07-10T01:12:09;2.53;;;2.03;;
62610;SDS011;48683;48.084;17.272;2022-07-10T01:14:36;2.25;;;2.03;;
62610;SDS011;48683;48.084;17.272;2022-07-10T01:17:04;3.10;;;2.30;;
62610;SDS011;48683;48.084;17.272;2022-07-10T01:19:30;2.83;;;2.38;;
62610;SDS011;48683;48.084;17.272;2022-07-10T01:21:55;2.30;;;2.13;;
62610;SDS011;48683;48.084;17.272;2022-07-10T01:24:21;3.97;;;2.53;;
62610;SDS011;48683;48.084;17.272;2022-07-10T01:26:46;2.50;;;2.30;;
62610;SDS011;48683;48.084;17.272;2022-07-10T01:29:11;2.60;;;2.37;;
62610;SDS011;48683;48.084;17.272;2022-07-10T01:31:37;2.30;;;2.10;;
62610;SDS011;48683;48.084;17.272;2022-07-10T01:34:04;2.65;;;2.10;;
62610;SDS011;48683;48.084;17.272;2022-07-10T01:38:56;3.70;;;2.00;;
62610;SDS011;48683;48.084;17.272;2022-07-10T01:41:23;3.38;;;2.20;;
62610;SDS011;48683;48.084;17.272;2022-07-10T01:43:48;2.00;;;1.90;;
62610;SDS011;48683;48.084;17.272;2022-07-10T01:46:14;2.53;;;1.77;;
62610;SDS011;48683;48.084;17.272;2022-07-10T01:48:40;1.90;;;1.70;;
62610;SDS011;48683;48.084;17.272;2022-07-10T01:51:07;2.20;;;1.88;;
62610;SDS011;48683;48.084;17.272;2022-07-10T01:55:59;2.60;;;1.77;;
62610;SDS011;48683;48.084;17.272;2022-07-10T01:58:28;1.92;;;1.70;;
62610;SDS011;48683;48.084;17.272;2022-07-10T02:00:53;3.23;;;1.73;;
62610;SDS011;48683;48.084;17.272;2022-07-10T02:03:18;2.00;;;1.77;;
62610;SDS011;48683;48.084;17.272;2022-07-10T02:06:02;5.28;;;1.77;;
62610;SDS011;48683;48.084;17.272;2022-07-10T02:08:28;3.83;;;2.23;;
62610;SDS011;48683;48.084;17.272;2022-07-10T02:10:53;2.00;;;1.83;;
62610;SDS011;48683;48.084;17.272;2022-07-10T02:13:19;1.83;;;1.73;;
62610;SDS011;48683;48.084;17.272;2022-07-10T02:15:48;2.05;;;1.50;;
62610;SDS011;48683;48.084;17.272;2022-07-10T02:18:13;3.80;;;2.00;;
62610;SDS011;48683;48.084;17.272;2022-07-10T02:20:39;2.23;;;2.03;;
62610;SDS011;48683;48.084;17.272;2022-07-10T02:23:04;2.10;;;1.80;;
62610;SDS011;48683;48.084;17.272;2022-07-10T02:25:31;2.58;;;2.20;;
62610;SDS011;48683;48.084;17.272;2022-07-10T02:27:56;3.03;;;2.10;;
62610;SDS011;48683;48.084;17.272;2022-07-10T02:30:22;2.73;;;2.27;;
62610;SDS011;48683;48.084;17.272;2022-07-10T02:32:47;3.10;;;2.50;;
62610;SDS011;48683;48.084;17.272;2022-07-10T02:35:12;3.63;;;2.30;;
62610;SDS011;48683;48.084;17.272;2022-07-10T02:37:38;3.88;;;2.20;;
62610;SDS011;48683;48.084;17.272;2022-07-10T02:40:03;2.23;;;2.03;;
62610;SDS011;48683;48.084;17.272;2022-07-10T02:42:29;3.27;;;2.60;;
62610;SDS011;48683;48.084;17.272;2022-07-10T02:44:54;2.73;;;2.30;;
62610;SDS011;48683;48.084;17.272;2022-07-10T02:47:19;5.07;;;2.45;;
62610;SDS011;48683;48.084;17.272;2022-07-10T02:49:45;3.15;;;2.20;;
62610;SDS011;48683;48.084;17.272;2022-07-10T02:52:10;3.53;;;2.27;;
62610;SDS011;48683;48.084;17.272;2022-07-10T02:54:36;2.17;;;2.00;;
62610;SDS011;48683;48.084;17.272;2022-07-10T02:59:28;2.40;;;2.20;;
62610;SDS011;48683;48.084;17.272;2022-07-10T03:01:53;3.00;;;2.58;;
62610;SDS011;48683;48.084;17.272;2022-07-10T03:04:19;4.90;;;2.30;;
62610;SDS011;48683;48.084;17.272;2022-07-10T03:06:45;3.23;;;2.23;;
62610;SDS011;48683;48.084;17.272;2022-07-10T03:09:10;3.17;;;2.13;;
62610;SDS011;48683;48.084;17.272;2022-07-10T03:11:35;2.43;;;2.23;;
62610;SDS011;48683;48.084;17.272;2022-07-10T03:14:01;2.88;;;2.40;;
62610;SDS011;48683;48.084;17.272;2022-07-10T03:16:26;2.83;;;2.40;;
62610;SDS011;48683;48.084;17.272;2022-07-10T03:18:51;2.50;;;2.07;;
62610;SDS011;48683;48.084;17.272;2022-07-10T03:21:17;3.93;;;2.00;;
62610;SDS011;48683;48.084;17.272;2022-07-10T03:23:42;4.35;;;2.00;;
62610;SDS011;48683;48.084;17.272;2022-07-10T03:26:08;2.80;;;2.50;;
62610;SDS011;48683;48.084;17.272;2022-07-10T03:28:33;3.17;;;2.35;;
62610;SDS011;48683;48.084;17.272;2022-07-10T03:30:58;4.33;;;2.27;;
62610;SDS011;48683;48.084;17.272;2022-07-10T03:33:24;3.63;;;2.63;;
62610;SDS011;48683;48.084;17.272;2022-07-10T03:35:49;6.33;;;3.07;;
62610;SDS011;48683;48.084;17.272;2022-07-10T03:38:14;2.63;;;1.97;;
62610;SDS011;48683;48.084;17.272;2022-07-10T03:40:40;2.70;;;2.50;;
62610;SDS011;48683;48.084;17.272;2022-07-10T03:43:05;3.70;;;2.40;;
62610;SDS011;48683;48.084;17.272;2022-07-10T03:45:31;2.90;;;2.30;;
62610;SDS011;48683;48.084;17.272;2022-07-10T03:47:56;2.47;;;2.00;;
62610;SDS011;48683;48.084;17.272;2022-07-10T03:50:21;2.83;;;2.50;;
62610;SDS011;48683;48.084;17.272;2022-07-10T03:52:47;5.67;;;3.67;;
62610;SDS011;48683;48.084;17.272;2022-07-10T03:55:12;6.50;;;3.67;;
62610;SDS011;48683;48.084;17.272;2022-07-10T03:57:38;5.60;;;4.05;;
62610;SDS011;48683;48.084;17.272;2022-07-10T04:00:18;4.45;;;4.05;;
62610;SDS011;48683;48.084;17.272;2022-07-10T04:02:44;4.43;;;3.53;;
62610;SDS011;48683;48.084;17.272;2022-07-10T04:05:09;5.50;;;3.10;;
62610;SDS011;48683;48.084;17.272;2022-07-10T04:07:35;2.40;;;2.20;;
62610;SDS011;48683;48.084;17.272;2022-07-10T04:10:01;2.55;;;1.88;;
62610;SDS011;48683;48.084;17.272;2022-07-10T04:12:28;4.18;;;2.15;;
62610;SDS011;48683;48.084;17.272;2022-07-10T04:14:53;2.83;;;1.97;;
62610;SDS011;48683;48.084;17.272;2022-07-10T04:17:18;5.10;;;2.20;;
62610;SDS011;48683;48.084;17.272;2022-07-10T04:19:44;3.30;;;2.10;;
62610;SDS011;48683;48.084;17.272;2022-07-10T04:22:09;4.80;;;2.03;;
62610;SDS011;48683;48.084;17.272;2022-07-10T04:24:35;2.00;;;1.80;;
62610;SDS011;48683;48.084;17.272;2022-07-10T04:27:00;3.80;;;2.10;;
62610;SDS011;48683;48.084;17.272;2022-07-10T04:29:26;2.70;;;1.80;;
62610;SDS011;48683;48.084;17.272;2022-07-10T04:31:52;4.37;;;2.27;;
62610;SDS011;48683;48.084;17.272;2022-07-10T04:34:17;2.83;;;2.30;;
62610;SDS011;48683;48.084;17.272;2022-07-10T04:36:42;3.70;;;2.27;;
62610;SDS011;48683;48.084;17.272;2022-07-10T04:39:08;2.93;;;2.20;;
62610;SDS011;48683;48.084;17.272;2022-07-10T04:41:33;4.20;;;2.17;;
62610;SDS011;48683;48.084;17.272;2022-07-10T04:43:58;4.03;;;2.60;;
62610;SDS011;48683;48.084;17.272;2022-07-10T04:46:24;5.60;;;2.53;;
62610;SDS011;48683;48.084;17.272;2022-07-10T04:48:49;3.97;;;2.77;;
62610;SDS011;48683;48.084;17.272;2022-07-10T04:51:15;7.23;;;2.93;;
62610;SDS011;48683;48.084;17.272;2022-07-10T04:53:41;2.93;;;2.50;;
62610;SDS011;48683;48.084;17.272;2022-07-10T04:56:06;2.87;;;2.50;;
62610;SDS011;48683;48.084;17.272;2022-07-10T04:58:32;4.30;;;2.43;;
62610;SDS011;48683;48.084;17.272;2022-07-10T05:00:57;2.83;;;2.45;;
62610;SDS011;48683;48.084;17.272;2022-07-10T05:03:22;4.27;;;2.83;;
62610;SDS011;48683;48.084;17.272;2022-07-10T05:05:48;2.90;;;2.67;;
62610;SDS011;48683;48.084;17.272;2022-07-10T05:08:13;4.40;;;2.47;;
62610;SDS011;48683;48.084;17.272;2022-07-10T05:10:38;3.80;;;2.77;;
62610;SDS011;48683;48.084;17.272;2022-07-10T05:13:04;3.95;;;2.72;;
62610;SDS011;48683;48.084;17.272;2022-07-10T05:15:31;3.90;;;2.40;;
62610;SDS011;48683;48.084;17.272;2022-07-10T05:17:56;3.03;;;2.60;;
62610;SDS011;48683;48.084;17.272;2022-07-10T05:20:22;7.40;;;2.50;;
62610;SDS011;48683;48.084;17.272;2022-07-10T05:22:47;1.98;;;1.88;;
62610;SDS011;48683;48.084;17.272;2022-07-10T05:25:12;3.47;;;2.67;;
62610;SDS011;48683;48.084;17.272;2022-07-10T05:27:38;2.70;;;2.43;;
62610;SDS011;48683;48.084;17.272;2022-07-10T05:30:03;5.10;;;2.77;;
62610;SDS011;48683;48.084;17.272;2022-07-10T05:32:29;3.43;;;2.67;;
62610;SDS011;48683;48.084;17.272;2022-07-10T05:34:56;4.60;;;2.70;;
62610;SDS011;48683;48.084;17.272;2022-07-10T05:37:22;3.25;;;2.53;;
62610;SDS011;48683;48.084;17.272;2022-07-10T05:39:47;3.27;;;2.87;;
62610;SDS011;48683;48.084;17.272;2022-07-10T05:42:13;5.73;;;3.00;;
62610;SDS011;48683;48.084;17.272;2022-07-10T05:44:38;3.03;;;2.63;;
62610;SDS011;48683;48.084;17.272;2022-07-10T05:47:03;4.17;;;2.70;;
62610;SDS011;48683;48.084;17.272;2022-07-10T05:49:29;2.73;;;2.50;;
62610;SDS011;48683;48.084;17.272;2022-07-10T05:51:54;2.70;;;2.50;;
62610;SDS011;48683;48.084;17.272;2022-07-10T05:54:19;3.00;;;2.70;;
62610;SDS011;48683;48.084;17.272;2022-07-10T05:56:45;5.20;;;2.60;;
62610;SDS011;48683;48.084;17.272;2022-07-10T05:59:10;4.17;;;2.47;;
62610;SDS011;48683;48.084;17.272;2022-07-10T06:01:35;4.07;;;2.67;;
62610;SDS011;48683;48.084;17.272;2022-07-10T06:04:01;3.80;;;2.10;;
62610;SDS011;48683;48.084;17.272;2022-07-10T06:06:26;3.97;;;2.60;;
62610;SDS011;48683;48.084;17.272;2022-07-10T06:08:52;2.20;;;2.07;;
62610;SDS011;48683;48.084;17.272;2022-07-10T06:11:17;4.07;;;2.40;;
62610;SDS011;48683;48.084;17.272;2022-07-10T06:13:42;3.23;;;2.03;;
62610;SDS011;48683;48.084;17.272;2022-07-10T06:16:08;3.97;;;2.20;;
62610;SDS011;48683;48.084;17.272;2022-07-10T06:18:33;3.23;;;2.33;;
62610;SDS011;48683;48.084;17.272;2022-07-10T06:20:58;4.13;;;2.27;;
62610;SDS011;48683;48.084;17.272;2022-07-10T06:23:24;4.13;;;2.40;;
62610;SDS011;48683;48.084;17.272;2022-07-10T06:25:49;2.00;;;1.83;;
62610;SDS011;48683;48.084;17.272;2022-07-10T06:28:18;3.57;;;2.10;;
62610;SDS011;48683;48.084;17.272;2022-07-10T06:30:44;3.78;;;1.98;;
62610;SDS011;48683;48.084;17.272;2022-07-10T06:33:11;3.60;;;1.98;;
62610;SDS011;48683;48.084;17.272;2022-07-10T06:35:36;4.10;;;2.00;;
62610;SDS011;48683;48.084;17.272;2022-07-10T06:38:02;2.93;;;1.90;;
62610;SDS011;48683;48.084;17.272;2022-07-10T06:40:28;4.37;;;1.93;;
62610;SDS011;48683;48.084;17.272;2022-07-10T06:45:19;2.97;;;1.77;;
62610;SDS011;48683;48.084;17.272;2022-07-10T06:47:45;3.47;;;1.70;;
62610;SDS011;48683;48.084;17.272;2022-07-10T06:50:24;2.13;;;1.50;;
62610;SDS011;48683;48.084;17.272;2022-07-10T06:52:50;1.88;;;1.75;;
62610;SDS011;48683;48.084;17.272;2022-07-10T06:55:19;3.63;;;1.90;;
62610;SDS011;48683;48.084;17.272;2022-07-10T06:57:45;2.08;;;1.60;;
62610;SDS011;48683;48.084;17.272;2022-07-10T07:00:10;3.50;;;1.77;;
62610;SDS011;48683;48.084;17.272;2022-07-10T07:02:36;3.70;;;1.87;;
62610;SDS011;48683;48.084;17.272;2022-07-10T07:05:02;4.00;;;1.80;;
62610;SDS011;48683;48.084;17.272;2022-07-10T07:07:27;2.53;;;1.87;;
62610;SDS011;48683;48.084;17.272;2022-07-10T07:09:53;2.37;;;1.73;;
62610;SDS011;48683;48.084;17.272;2022-07-10T07:12:18;3.90;;;1.80;;
62610;SDS011;48683;48.084;17.272;2022-07-10T07:14:44;1.77;;;1.60;;
62610;SDS011;48683;48.084;17.272;2022-07-10T07:17:09;2.10;;;1.90;;
62610;SDS011;48683;48.084;17.272;2022-07-10T07:19:37;2.13;;;1.92;;
62610;SDS011;48683;48.084;17.272;2022-07-10T07:22:21;2.58;;;1.80;;
62610;SDS011;48683;48.084;17.272;2022-07-10T07:25:06;1.80;;;1.40;;
62610;SDS011;48683;48.084;17.272;2022-07-10T07:27:33;3.28;;;1.73;;
62610;SDS011;48683;48.084;17.272;2022-07-10T07:32:32;3.72;;;1.90;;
62610;SDS011;48683;48.084;17.272;2022-07-10T07:34:58;3.55;;;1.50;;
62610;SDS011;48683;48.084;17.272;2022-07-10T07:37:34;4.40;;;1.70;;
62610;SDS011;48683;48.084;17.272;2022-07-10T07:40:20;4.13;;;2.13;;
62610;SDS011;48683;48.084;17.272;2022-07-10T07:42:51;2.25;;;1.42;;
62610;SDS011;48683;48.084;17.272;2022-07-10T07:45:18;2.25;;;1.45;;
62610;SDS011;48683;48.084;17.272;2022-07-10T07:50:21;3.30;;;1.50;;
62610;SDS011;48683;48.084;17.272;2022-07-10T07:52:47;4.03;;;2.10;;
62610;SDS011;48683;48.084;17.272;2022-07-10T07:55:14;2.13;;;1.90;;
62610;SDS011;48683;48.084;17.272;2022-07-10T07:57:41;3.88;;;1.90;;
62610;SDS011;48683;48.084;17.272;2022-07-10T08:00:07;2.75;;;1.90;;
62610;SDS011;48683;48.084;17.272;2022-07-10T08:02:34;3.13;;;2.15;;
62610;SDS011;48683;48.084;17.272;2022-07-10T08:04:59;3.03;;;1.75;;
62610;SDS011;48683;48.084;17.272;2022-07-10T08:07:35;5.33;;;1.80;;
62610;SDS011;48683;48.084;17.272;2022-07-10T08:10:01;5.13;;;2.40;;
62610;SDS011;48683;48.084;17.272;2022-07-10T08:14:53;3.03;;;1.93;;
62610;SDS011;48683;48.084;17.272;2022-07-10T08:17:18;3.73;;;1.80;;
62610;SDS011;48683;48.084;17.272;2022-07-10T08:19:43;6.90;;;2.00;;
62610;SDS011;48683;48.084;17.272;2022-07-10T08:22:09;2.90;;;1.70;;
62610;SDS011;48683;48.084;17.272;2022-07-10T08:24:34;3.73;;;1.90;;
62610;SDS011;48683;48.084;17.272;2022-07-10T08:26:59;2.10;;;1.70;;
62610;SDS011;48683;48.084;17.272;2022-07-10T08:29:25;4.10;;;2.20;;
62610;SDS011;48683;48.084;17.272;2022-07-10T08:31:50;7.87;;;2.30;;
62610;SDS011;48683;48.084;17.272;2022-07-10T08:34:16;3.73;;;2.60;;
62610;SDS011;48683;48.084;17.272;2022-07-10T08:36:41;3.83;;;1.67;;
62610;SDS011;48683;48.084;17.272;2022-07-10T08:39:06;4.77;;;2.10;;
62610;SDS011;48683;48.084;17.272;2022-07-10T08:41:31;4.33;;;1.97;;
62610;SDS011;48683;48.084;17.272;2022-07-10T08:43:59;3.33;;;2.40;;
62610;SDS011;48683;48.084;17.272;2022-07-10T08:46:25;7.20;;;2.87;;
62610;SDS011;48683;48.084;17.272;2022-07-10T08:51:29;3.85;;;2.35;;
62610;SDS011;48683;48.084;17.272;2022-07-10T08:54:01;2.65;;;2.17;;
62610;SDS011;48683;48.084;17.272;2022-07-10T08:56:29;4.45;;;2.50;;
62610;SDS011;48683;48.084;17.272;2022-07-10T08:58:55;4.65;;;2.22;;
62610;SDS011;48683;48.084;17.272;2022-07-10T09:01:21;3.47;;;2.50;;
62610;SDS011;48683;48.084;17.272;2022-07-10T09:03:48;9.82;;;2.25;;
62610;SDS011;48683;48.084;17.272;2022-07-10T09:06:15;4.88;;;2.55;;
62610;SDS011;48683;48.084;17.272;2022-07-10T09:08:57;2.75;;;2.47;;
62610;SDS011;48683;48.084;17.272;2022-07-10T09:11:25;4.88;;;2.17;;
62610;SDS011;48683;48.084;17.272;2022-07-10T09:14:01;5.90;;;2.22;;
62610;SDS011;48683;48.084;17.272;2022-07-10T09:16:33;4.32;;;2.67;;
62610;SDS011;48683;48.084;17.272;2022-07-10T09:21:49;5.05;;;2.55;;
62610;SDS011;48683;48.084;17.272;2022-07-10T09:24:16;3.78;;;2.47;;
62610;SDS011;48683;48.084;17.272;2022-07-10T09:29:19;3.35;;;2.20;;
62610;SDS011;48683;48.084;17.272;2022-07-10T09:31:48;5.23;;;2.30;;
62610;SDS011;48683;48.084;17.272;2022-07-10T09:34:17;3.80;;;2.60;;
62610;SDS011;48683;48.084;17.272;2022-07-10T09:36:43;5.78;;;2.20;;
62610;SDS011;48683;48.084;17.272;2022-07-10T09:39:08;5.47;;;2.40;;
62610;SDS011;48683;48.084;17.272;2022-07-10T09:41:34;6.40;;;2.40;;
62610;SDS011;48683;48.084;17.272;2022-07-10T09:44:03;2.70;;;1.90;;
62610;SDS011;48683;48.084;17.272;2022-07-10T09:46:34;4.82;;;2.28;;
62610;SDS011;48683;48.084;17.272;2022-07-10T09:49:10;2.42;;;1.80;;
62610;SDS011;48683;48.084;17.272;2022-07-10T09:51:43;5.35;;;1.80;;
62610;SDS011;48683;48.084;17.272;2022-07-10T09:54:11;4.07;;;1.80;;
62610;SDS011;48683;48.084;17.272;2022-07-10T09:56:44;3.88;;;2.20;;
62610;SDS011;48683;48.084;17.272;2022-07-10T09:59:21;3.40;;;1.90;;
62610;SDS011;48683;48.084;17.272;2022-07-10T10:01:47;7.10;;;2.05;;
62610;SDS011;48683;48.084;17.272;2022-07-10T10:04:17;4.72;;;2.10;;
62610;SDS011;48683;48.084;17.272;2022-07-10T10:06:55;5.35;;;2.22;;
62610;SDS011;48683;48.084;17.272;2022-07-10T10:09:23;7.65;;;2.20;;
62610;SDS011;48683;48.084;17.272;2022-07-10T10:11:55;4.35;;;1.83;;
62610;SDS011;48683;48.084;17.272;2022-07-10T10:14:28;2.58;;;1.70;;
62610;SDS011;48683;48.084;17.272;2022-07-10T10:16:54;5.43;;;1.50;;
62610;SDS011;48683;48.084;17.272;2022-07-10T10:19:24;3.00;;;1.42;;
62610;SDS011;48683;48.084;17.272;2022-07-10T10:22:09;1.70;;;1.48;;
62610;SDS011;48683;48.084;17.272;2022-07-10T10:24:37;3.10;;;1.58;;
62610;SDS011;48683;48.084;17.272;2022-07-10T10:27:04;3.75;;;1.10;;
62610;SDS011;48683;48.084;17.272;2022-07-10T10:29:31;3.22;;;1.58;;
62610;SDS011;48683;48.084;17.272;2022-07-10T10:32:00;5.57;;;1.60;;
62610;SDS011;48683;48.084;17.272;2022-07-10T10:34:42;9.82;;;1.77;;
62610;SDS011;48683;48.084;17.272;2022-07-10T10:39:52;6.60;;;1.65;;
62610;SDS011;48683;48.084;17.272;2022-07-10T10:42:37;1.10;;;1.00;;
62610;SDS011;48683;48.084;17.272;2022-07-10T10:48:01;3.42;;;1.80;;
62610;SDS011;48683;48.084;17.272;2022-07-10T10:50:46;5.72;;;1.77;;
62610;SDS011;48683;48.084;17.272;2022-07-10T10:53:23;2.65;;;1.40;;
62610;SDS011;48683;48.084;17.272;2022-07-10T10:58:25;2.75;;;1.30;;
62610;SDS011;48683;48.084;17.272;2022-07-10T11:00:52;3.65;;;1.48;;
62610;SDS011;48683;48.084;17.272;2022-07-10T11:03:18;3.40;;;1.47;;
62610;SDS011;48683;48.084;17.272;2022-07-10T11:05:47;2.13;;;1.48;;
62610;SDS011;48683;48.084;17.272;2022-07-10T11:08:13;2.17;;;1.30;;
62610;SDS011;48683;48.084;17.272;2022-07-10T11:10:40;2.75;;;1.60;;
62610;SDS011;48683;48.084;17.272;2022-07-10T11:13:08;4.30;;;1.48;;
62610;SDS011;48683;48.084;17.272;2022-07-10T11:15:47;3.25;;;1.55;;
62610;SDS011;48683;48.084;17.272;2022-07-10T11:18:17;3.75;;;1.77;;
62610;SDS011;48683;48.084;17.272;2022-07-10T11:20:48;4.90;;;1.40;;
62610;SDS011;48683;48.084;17.272;2022-07-10T11:25:50;3.42;;;1.30;;
62610;SDS011;48683;48.084;17.272;2022-07-10T11:28:32;7.57;;;1.90;;
62610;SDS011;48683;48.084;17.272;2022-07-10T11:31:01;2.00;;;1.10;;
62610;SDS011;48683;48.084;17.272;2022-07-10T11:33:27;2.47;;;1.13;;
62610;SDS011;48683;48.084;17.272;2022-07-10T11:35:53;2.07;;;1.23;;
62610;SDS011;48683;48.084;17.272;2022-07-10T11:38:19;4.63;;;1.42;;
62610;SDS011;48683;48.084;17.272;2022-07-10T11:40:49;3.60;;;1.55;;
62610;SDS011;48683;48.084;17.272;2022-07-10T11:43:15;3.75;;;1.35;;
62610;SDS011;48683;48.084;17.272;2022-07-10T11:45:42;4.03;;;1.48;;
62610;SDS011;48683;48.084;17.272;2022-07-10T11:48:16;2.60;;;1.35;;
62610;SDS011;48683;48.084;17.272;2022-07-10T11:50:42;3.28;;;1.15;;
62610;SDS011;48683;48.084;17.272;2022-07-10T11:53:08;2.90;;;1.20;;
62610;SDS011;48683;48.084;17.272;2022-07-10T11:55:33;2.30;;;1.37;;
62610;SDS011;48683;48.084;17.272;2022-07-10T11:58:12;4.13;;;1.00;;
62610;SDS011;48683;48.084;17.272;2022-07-10T12:00:38;2.92;;;1.08;;
62610;SDS011;48683;48.084;17.272;2022-07-10T12:03:24;3.80;;;1.53;;
62610;SDS011;48683;48.084;17.272;2022-07-10T12:05:49;2.78;;;1.10;;
62610;SDS011;48683;48.084;17.272;2022-07-10T12:08:16;2.65;;;1.30;;
62610;SDS011;48683;48.084;17.272;2022-07-10T12:10:41;2.73;;;1.10;;
62610;SDS011;48683;48.084;17.272;2022-07-10T12:13:14;4.50;;;1.10;;
62610;SDS011;48683;48.084;17.272;2022-07-10T12:15:41;2.13;;;0.90;;
62610;SDS011;48683;48.084;17.272;2022-07-10T12:18:08;4.65;;;1.15;;
62610;SDS011;48683;48.084;17.272;2022-07-10T12:20:40;2.95;;;1.00;;
62610;SDS011;48683;48.084;17.272;2022-07-10T12:23:10;2.70;;;0.90;;
62610;SDS011;48683;48.084;17.272;2022-07-10T12:25:37;3.55;;;0.90;;
62610;SDS011;48683;48.084;17.272;2022-07-10T12:28:03;1.40;;;0.85;;
62610;SDS011;48683;48.084;17.272;2022-07-10T12:30:39;4.43;;;1.23;;
62610;SDS011;48683;48.084;17.272;2022-07-10T12:33:12;1.98;;;0.77;;
62610;SDS011;48683;48.084;17.272;2022-07-10T12:38:18;7.57;;;1.30;;
62610;SDS011;48683;48.084;17.272;2022-07-10T12:40:44;1.15;;;0.88;;
62610;SDS011;48683;48.084;17.272;2022-07-10T12:43:10;2.60;;;1.17;;
62610;SDS011;48683;48.084;17.272;2022-07-10T12:45:36;3.50;;;1.20;;
62610;SDS011;48683;48.084;17.272;2022-07-10T12:48:03;3.67;;;1.13;;
62610;SDS011;48683;48.084;17.272;2022-07-10T12:50:30;3.42;;;1.02;;
62610;SDS011;48683;48.084;17.272;2022-07-10T12:53:11;3.27;;;0.87;;
62610;SDS011;48683;48.084;17.272;2022-07-10T12:55:38;2.58;;;0.70;;
62610;SDS011;48683;48.084;17.272;2022-07-10T12:58:05;3.87;;;0.70;;
62610;SDS011;48683;48.084;17.272;2022-07-10T13:00:34;1.83;;;0.77;;
62610;SDS011;48683;48.084;17.272;2022-07-10T13:03:04;3.38;;;1.00;;
62610;SDS011;48683;48.084;17.272;2022-07-10T13:05:40;3.10;;;0.85;;
62610;SDS011;48683;48.084;17.272;2022-07-10T13:08:19;3.03;;;0.80;;
62610;SDS011;48683;48.084;17.272;2022-07-10T13:10:50;3.35;;;0.85;;
62610;SDS011;48683;48.084;17.272;2022-07-10T13:13:19;2.38;;;0.70;;
62610;SDS011;48683;48.084;17.272;2022-07-10T13:15:45;2.70;;;0.73;;
62610;SDS011;48683;48.084;17.272;2022-07-10T13:18:16;3.60;;;0.70;;
62610;SDS011;48683;48.084;17.272;2022-07-10T13:20:46;6.22;;;0.95;;
62610;SDS011;48683;48.084;17.272;2022-07-10T13:23:12;2.67;;;0.60;;
62610;SDS011;48683;48.084;17.272;2022-07-10T13:25:37;3.60;;;1.00;;
62610;SDS011;48683;48.084;17.272;2022-07-10T13:28:04;3.17;;;0.87;;
62610;SDS011;48683;48.084;17.272;2022-07-10T13:30:33;7.65;;;0.88;;
62610;SDS011;48683;48.084;17.272;2022-07-10T13:32:59;1.58;;;0.75;;
62610;SDS011;48683;48.084;17.272;2022-07-10T13:35:27;1.77;;;0.60;;
62610;SDS011;48683;48.084;17.272;2022-07-10T13:37:59;4.43;;;0.70;;
62610;SDS011;48683;48.084;17.272;2022-07-10T13:40:26;3.63;;;1.02;;
62610;SDS011;48683;48.084;17.272;2022-07-10T13:42:52;1.60;;;0.57;;
62610;SDS011;48683;48.084;17.272;2022-07-10T13:45:18;3.10;;;0.88;;
62610;SDS011;48683;48.084;17.272;2022-07-10T13:47:45;3.17;;;0.70;;
62610;SDS011;48683;48.084;17.272;2022-07-10T13:50:10;5.47;;;0.90;;
62610;SDS011;48683;48.084;17.272;2022-07-10T13:52:35;2.53;;;0.87;;
62610;SDS011;48683;48.084;17.272;2022-07-10T13:55:01;2.10;;;1.00;;
62610;SDS011;48683;48.084;17.272;2022-07-10T13:57:28;2.78;;;0.90;;
62610;SDS011;48683;48.084;17.272;2022-07-10T13:59:53;1.97;;;0.70;;
62610;SDS011;48683;48.084;17.272;2022-07-10T14:02:19;2.60;;;0.70;;
62610;SDS011;48683;48.084;17.272;2022-07-10T14:04:45;2.30;;;0.70;;
62610;SDS011;48683;48.084;17.272;2022-07-10T14:07:10;2.20;;;0.83;;
62610;SDS011;48683;48.084;17.272;2022-07-10T14:09:35;1.43;;;0.80;;
62610;SDS011;48683;48.084;17.272;2022-07-10T14:12:01;3.13;;;0.80;;
62610;SDS011;48683;48.084;17.272;2022-07-10T14:14:26;4.00;;;1.07;;
62610;SDS011;48683;48.084;17.272;2022-07-10T14:16:51;3.10;;;0.90;;
62610;SDS011;48683;48.084;17.272;2022-07-10T14:19:17;4.83;;;1.10;;
62610;SDS011;48683;48.084;17.272;2022-07-10T14:21:42;3.70;;;0.70;;
62610;SDS011;48683;48.084;17.272;2022-07-10T14:24:07;5.13;;;0.70;;
62610;SDS011;48683;48.084;17.272;2022-07-10T14:26:33;5.63;;;0.90;;
62610;SDS011;48683;48.084;17.272;2022-07-10T14:29:00;0.70;;;0.50;;
62610;SDS011;48683;48.084;17.272;2022-07-10T14:31:27;2.03;;;0.70;;
62610;SDS011;48683;48.084;17.272;2022-07-10T14:33:53;2.03;;;0.60;;
62610;SDS011;48683;48.084;17.272;2022-07-10T14:36:18;1.30;;;0.60;;
62610;SDS011;48683;48.084;17.272;2022-07-10T14:38:44;3.00;;;0.60;;
62610;SDS011;48683;48.084;17.272;2022-07-10T14:41:10;1.07;;;0.70;;
62610;SDS011;48683;48.084;17.272;2022-07-10T14:43:35;0.70;;;0.60;;
62610;SDS011;48683;48.084;17.272;2022-07-10T14:46:01;0.95;;;0.63;;
62610;SDS011;48683;48.084;17.272;2022-07-10T14:48:29;4.82;;;0.57;;
62610;SDS011;48683;48.084;17.272;2022-07-10T14:53:22;2.22;;;0.98;;
62610;SDS011;48683;48.084;17.272;2022-07-10T14:55:48;1.47;;;0.60;;
62610;SDS011;48683;48.084;17.272;2022-07-10T14:58:13;1.80;;;0.70;;
62610;SDS011;48683;48.084;17.272;2022-07-10T15:00:38;1.57;;;0.77;;
62610;SDS011;48683;48.084;17.272;2022-07-10T15:03:04;3.73;;;0.70;;
62610;SDS011;48683;48.084;17.272;2022-07-10T15:05:29;2.47;;;1.00;;
62610;SDS011;48683;48.084;17.272;2022-07-10T15:07:54;3.33;;;0.60;;
62610;SDS011;48683;48.084;17.272;2022-07-10T15:10:20;3.93;;;0.70;;
62610;SDS011;48683;48.084;17.272;2022-07-10T15:12:45;1.03;;;0.60;;
62610;SDS011;48683;48.084;17.272;2022-07-10T15:15:11;2.63;;;0.80;;
62610;SDS011;48683;48.084;17.272;2022-07-10T15:17:36;1.70;;;0.60;;
62610;SDS011;48683;48.084;17.272;2022-07-10T15:20:05;1.47;;;0.67;;